Time;durP1;ratioP1;P1;durP2;ratioP2;P2;SDS_P1;SDS_P2;PMS_P1;PMS_P2;Temp;Humidity;BMP_temperature;BMP_pressure;BME280_temperature;BME280_humidity;BME280_pressure;Samples;Min_cycle;Max_cycle;Signal;HPM_P1;HPM_P2
2021/06/29 00:02:12;;;;;;;6.63;4.78;;;20.80;95.80;;;21.07;100.00;100010.00;3509742;39;100212;-84
2021/06/29 00:05:26;;;;;;;6.57;4.43;;;20.80;96.30;;;20.99;100.00;100004.91;3498513;39;103017;-84
2021/06/29 00:08:38;;;;;;;5.32;4.55;;;20.70;96.60;;;20.97;100.00;100009.75;3516587;39;103171;-83
2021/06/29 00:11:51;;;;;;;5.25;4.30;;;20.70;96.80;;;20.93;100.00;100003.09;3501425;39;102497;-82
2021/06/29 00:15:02;;;;;;;6.00;4.15;;;20.60;96.90;;;20.88;100.00;100000.25;3509088;39;100043;-82
2021/06/29 00:18:15;;;;;;;5.50;3.97;;;20.60;97.00;;;20.79;100.00;99991.59;3509368;39;101514;-83
2021/06/29 00:21:28;;;;;;;5.20;4.30;;;20.60;97.10;;;20.84;100.00;100001.78;3507892;39;101392;-85
2021/06/29 00:24:40;;;;;;;9.20;5.18;;;20.50;97.30;;;20.69;100.00;100015.78;3510062;39;100543;-83
2021/06/29 00:27:51;;;;;;;4.70;3.88;;;20.50;97.60;;;20.55;100.00;100012.41;3508522;39;99975;-83
2021/06/29 00:31:03;;;;;;;5.50;4.13;;;21.30;98.40;;;20.58;100.00;100019.28;3510467;39;101158;-82
2021/06/29 00:34:15;;;;;;;7.05;4.47;;;20.90;98.50;;;20.62;100.00;100015.91;3508973;39;101492;-82
2021/06/29 00:37:28;;;;;;;5.72;4.30;;;20.30;98.70;;;20.49;100.00;100001.66;3508141;39;100811;-82
2021/06/29 00:40:41;;;;;;;5.03;4.45;;;20.30;98.70;;;20.46;100.00;99999.38;3508314;39;100394;-82
2021/06/29 00:43:54;;;;;;;5.47;3.75;;;20.30;98.70;;;20.52;100.00;99993.03;3508677;39;101136;-82
2021/06/29 00:47:18;;;;;;;5.28;4.45;;;20.20;98.90;;;20.60;100.00;100001.69;3514585;39;103205;-81
2021/06/29 00:50:30;;;;;;;5.43;4.93;;;20.20;99.00;;;20.53;100.00;100010.97;3516541;39;100161;-81
2021/06/29 00:53:46;;;;;;;6.00;4.97;;;20.20;99.50;;;20.50;100.00;100012.28;3527104;39;99564;-83
2021/06/29 00:56:58;;;;;;;6.40;4.78;;;20.20;99.70;;;20.44;100.00;100018.63;3512177;39;103123;-82
2021/06/29 01:00:09;;;;;;;4.72;4.10;;;20.20;99.90;;;20.45;100.00;100020.28;3501515;39;103100;-82
2021/06/29 01:03:21;;;;;;;4.07;3.70;;;20.20;99.90;;;20.24;100.00;100021.59;3509704;39;100824;-82
2021/06/29 01:06:33;;;;;;;7.15;5.05;;;20.20;99.90;;;20.15;100.00;100017.50;3510441;39;100056;-84
2021/06/29 01:09:47;;;;;;;5.72;4.90;;;20.20;99.90;;;20.17;100.00;100014.53;3510383;39;100952;-83
2021/06/29 01:12:58;;;;;;;5.78;4.65;;;20.60;99.90;;;20.15;100.00;100016.69;3510186;39;101308;-83
2021/06/29 01:16:14;;;;;;;7.75;4.28;;;20.10;99.90;;;20.19;100.00;100023.31;3508607;39;100597;-83
2021/06/29 01:19:34;;;;;;;4.72;4.07;;;20.10;99.90;;;20.29;100.00;100021.72;3499263;40;100112;-83
2021/06/29 01:22:50;;;;;;;5.82;4.43;;;20.10;99.90;;;20.27;100.00;100017.59;3508022;39;103415;-82
2021/06/29 01:26:10;;;;;;;6.88;4.72;;;20.10;99.90;;;20.28;100.00;100017.31;3499623;40;100959;-83
2021/06/29 01:29:33;;;;;;;4.88;4.40;;;20.00;99.90;;;20.38;100.00;100019.56;3500530;40;100490;-82
2021/06/29 01:32:44;;;;;;;5.68;4.38;;;20.00;99.90;;;20.22;100.00;100022.84;3501006;40;100152;-82
2021/06/29 01:35:57;;;;;;;4.93;4.20;;;20.00;99.90;;;19.91;100.00;100026.53;3499052;40;102845;-82
2021/06/29 01:39:12;;;;;;;6.40;4.80;;;20.00;99.90;;;19.82;100.00;100038.75;3508506;39;101252;-83
2021/06/29 01:42:25;;;;;;;5.72;4.68;;;19.80;99.90;;;19.76;100.00;100040.50;3510211;39;100587;-83
2021/06/29 01:45:36;;;;;;;4.82;4.22;;;19.80;99.90;;;19.67;100.00;100039.94;3525366;39;100017;-82
2021/06/29 01:48:52;;;;;;;5.47;4.43;;;19.70;99.90;;;19.66;100.00;100045.56;3521517;39;100323;-83
2021/06/29 01:52:04;;;;;;;11.75;5.40;;;19.70;99.90;;;19.74;100.00;100050.75;3508852;39;103375;-83
2021/06/29 01:55:18;;;;;;;5.32;4.82;;;19.80;99.90;;;19.50;100.00;100048.88;3502508;40;100676;-82
2021/06/29 01:58:32;;;;;;;5.38;4.78;;;19.50;99.90;;;19.33;100.00;100051.25;3502127;40;99983;-83
2021/06/29 02:01:44;;;;;;;6.40;5.72;;;19.50;99.90;;;19.28;100.00;100059.25;3511040;39;101731;-82
2021/06/29 02:04:56;;;;;;;6.00;5.10;;;19.40;99.90;;;19.11;100.00;100061.66;3512166;39;101156;-83
2021/06/29 02:08:07;;;;;;;8.23;5.93;;;19.30;99.90;;;18.96;100.00;100071.97;3501717;40;100609;-83
2021/06/29 02:11:21;;;;;;;7.47;5.45;;;19.30;99.90;;;18.83;100.00;100081.00;3503229;40;101026;-84
2021/06/29 02:14:34;;;;;;;6.20;4.93;;;19.20;99.90;;;18.79;100.00;100085.19;3507062;40;101284;-83
2021/06/29 02:17:46;;;;;;;9.07;5.70;;;19.00;99.90;;;18.79;100.00;100071.63;3499295;40;103422;-83
2021/06/29 02:20:58;;;;;;;7.10;6.00;;;19.40;99.90;;;18.88;100.00;100072.22;3502311;40;100677;-82
2021/06/29 02:24:09;;;;;;;9.75;6.55;;;18.80;99.90;;;18.78;100.00;100090.84;3503040;40;100127;-82
2021/06/29 02:27:23;;;;;;;5.63;4.82;;;18.80;99.90;;;18.94;100.00;100090.31;3502138;40;101297;-83
2021/06/29 02:30:36;;;;;;;7.95;6.13;;;18.70;99.90;;;18.90;100.00;100094.53;3497061;39;103408;-84
2021/06/29 02:33:47;;;;;;;10.23;6.28;;;18.70;99.90;;;18.92;100.00;100089.72;3518756;39;102352;-82
2021/06/29 02:36:59;;;;;;;8.63;5.90;;;18.70;99.90;;;18.90;100.00;100094.53;3526259;39;99918;-83
2021/06/29 02:40:12;;;;;;;6.97;5.45;;;18.70;99.90;;;18.75;100.00;100092.09;3517977;39;103505;-83
2021/06/29 02:43:25;;;;;;;7.15;5.75;;;18.70;99.90;;;18.70;100.00;100082.94;3502052;39;101692;-84
2021/06/29 02:46:37;;;;;;;7.88;5.82;;;18.60;99.90;;;18.85;100.00;100083.50;3503219;39;102603;-82
2021/06/29 02:49:49;;;;;;;6.95;5.80;;;18.60;99.90;;;18.88;100.00;100077.66;3493337;40;99996;-83
2021/06/29 02:53:01;;;;;;;6.10;4.78;;;18.50;99.90;;;18.81;100.00;100079.56;3491241;40;102902;-83
2021/06/29 02:56:37;;;;;;;7.78;6.03;;;18.80;99.90;;;18.84;100.00;100071.81;3502506;39;101143;-83
2021/06/29 02:59:47;;;;;;;8.52;5.78;;;18.60;99.90;;;18.93;100.00;100069.69;3493075;40;102299;-84
2021/06/29 03:02:59;;;;;;;7.53;6.00;;;18.60;99.90;;;18.96;100.00;100075.50;3509190;39;100212;-83
2021/06/29 03:06:10;;;;;;;6.45;5.43;;;18.70;99.90;;;18.98;100.00;100068.00;3513773;39;101301;-83
2021/06/29 03:09:22;;;;;;;6.70;4.43;;;18.70;99.90;;;19.01;100.00;100066.72;3511469;39;101329;-84
2021/06/29 03:12:35;;;;;;;6.60;5.07;;;18.70;99.90;;;18.93;100.00;100070.50;3517882;39;102545;-83
2021/06/29 03:15:48;;;;;;;6.93;5.82;;;18.70;99.90;;;18.66;100.00;100079.84;3501175;40;100024;-84
2021/06/29 03:19:00;;;;;;;11.70;5.28;;;19.40;99.90;;;18.74;100.00;100079.59;3508482;39;101089;-82
2021/06/29 03:22:12;;;;;;;7.00;5.78;;;18.80;99.90;;;18.93;100.00;100072.41;3502683;39;102375;-83
2021/06/29 03:25:24;;;;;;;5.93;5.32;;;18.80;99.90;;;19.08;100.00;100077.53;3490995;40;101435;-82
2021/06/29 03:28:36;;;;;;;8.20;5.45;;;18.80;99.90;;;19.27;100.00;100068.44;3500238;40;100926;-82
2021/06/29 03:31:50;;;;;;;6.63;5.85;;;19.60;99.90;;;19.10;100.00;100078.16;3503247;39;103077;-83
2021/06/29 03:35:02;;;;;;;7.28;6.15;;;18.90;99.90;;;19.09;100.00;100069.16;3510128;39;101038;-84
2021/06/29 03:38:14;;;;;;;7.90;6.20;;;19.00;99.90;;;19.46;100.00;100072.88;3512938;39;100520;-83
2021/06/29 03:41:26;;;;;;;10.18;6.22;;;19.10;99.90;;;19.74;100.00;100072.47;3500706;39;99952;-83
2021/06/29 03:44:38;;;;;;;7.78;5.68;;;19.20;99.90;;;19.90;100.00;100057.47;3501689;39;103195;-82
2021/06/29 03:47:52;;;;;;;7.13;5.40;;;19.20;99.90;;;19.84;100.00;100061.09;3499759;39;103447;-82
2021/06/29 03:51:04;;;;;;;8.18;6.18;;;19.30;99.90;;;19.83;100.00;100054.81;3510938;39;100351;-83
2021/06/29 03:54:15;;;;;;;6.30;5.35;;;19.40;99.90;;;19.93;100.00;100063.28;3512074;39;99942;-83
2021/06/29 03:57:27;;;;;;;5.90;5.03;;;19.50;99.90;;;19.83;100.00;100054.81;3512296;39;100988;-83
2021/06/29 04:00:39;;;;;;;8.27;5.70;;;19.50;99.90;;;19.51;100.00;100058.69;3504911;39;103265;-83
2021/06/29 04:03:54;;;;;;;7.35;6.13;;;19.60;99.90;;;19.47;100.00;100060.97;3511069;39;100401;-82
2021/06/29 04:07:08;;;;;;;7.00;5.47;;;19.60;99.90;;;19.76;100.00;100053.22;3511219;39;100074;-84
2021/06/29 04:10:20;;;;;;;7.20;5.32;;;19.60;99.90;;;19.70;100.00;100046.81;3501148;39;102014;-82
2021/06/29 04:13:32;;;;;;;7.13;6.20;;;19.60;99.90;;;19.87;100.00;100058.75;3508055;39;101038;-84
2021/06/29 04:16:44;;;;;;;9.13;7.45;;;19.60;99.90;;;19.83;100.00;100054.00;3501129;39;102605;-84
2021/06/29 04:19:58;;;;;;;9.20;6.38;;;19.70;99.90;;;19.70;100.00;100049.50;3522119;39;100134;-84
2021/06/29 04:23:10;;;;;;;8.85;6.20;;;18.80;99.90;;;19.85;100.00;100049.16;3524186;39;100039;-84
2021/06/29 04:26:21;;;;;;;6.60;5.97;;;19.80;99.90;;;20.02;100.00;100050.25;3509489;39;101504;-84
2021/06/29 04:29:33;;;;;;;11.45;6.70;;;19.80;99.90;;;20.05;100.00;100052.50;3496622;40;102567;-86
2021/06/29 04:32:45;;;;;;;8.35;6.18;;;19.90;99.90;;;20.41;100.00;100046.25;3506361;40;99955;-83
2021/06/29 04:35:58;;;;;;;8.88;6.47;;;19.90;99.90;;;20.16;100.00;100049.03;3502346;40;101076;-83
2021/06/29 04:39:11;;;;;;;9.43;6.07;;;20.00;99.90;;;20.52;100.00;100039.25;3512162;39;103257;-83
2021/06/29 04:42:23;;;;;;;8.45;5.80;;;20.10;99.90;;;21.05;100.00;100039.31;3493181;40;100439;-83
2021/06/29 04:45:35;;;;;;;8.05;6.10;;;20.20;99.90;;;21.11;100.00;100031.06;3501175;40;100505;-84
2021/06/29 04:48:47;;;;;;;6.25;5.55;;;20.40;99.90;;;21.54;100.00;100031.84;3499988;40;102893;-84
2021/06/29 04:52:01;;;;;;;8.27;6.30;;;20.50;99.90;;;21.45;100.00;100031.38;3503441;40;101338;-84
2021/06/29 04:55:13;;;;;;;6.60;5.32;;;21.30;99.90;;;21.43;100.00;100022.63;3500789;40;101949;-83
2021/06/29 04:58:25;;;;;;;9.05;5.65;;;20.80;99.90;;;21.78;100.00;100009.00;3503368;40;100075;-84
2021/06/29 05:01:37;;;;;;;5.82;5.32;;;21.00;99.90;;;22.05;100.00;100021.09;3503614;40;101303;-83
2021/06/29 05:04:48;;;;;;;5.43;4.82;;;21.40;99.90;;;21.99;100.00;100030.25;3517161;39;99864;-83
2021/06/29 05:08:04;;;;;;;6.43;5.05;;;21.30;99.90;;;22.30;100.00;100020.81;3509353;39;100097;-85
2021/06/29 05:11:15;;;;;;;6.30;5.10;;;21.70;99.90;;;22.17;100.00;100013.72;3501516;40;100093;-83
2021/06/29 05:14:27;;;;;;;6.47;5.18;;;21.60;99.90;;;22.40;100.00;100015.56;3494675;40;101197;-83
2021/06/29 05:17:38;;;;;;;6.40;4.72;;;21.80;99.90;;;22.45;100.00;100009.41;3488688;40;100888;-83
2021/06/29 05:20:50;;;;;;;7.10;5.25;;;21.90;99.90;;;22.42;100.00;100020.78;3496576;40;102438;-84
2021/06/29 05:24:03;;;;;;;7.22;4.85;;;22.80;99.90;;;22.60;100.00;100019.78;3490730;40;100242;-84
2021/06/29 05:27:15;;;;;;;5.80;4.68;;;22.10;99.90;;;22.51;100.00;100025.59;3506731;39;103360;-83
2021/06/29 05:30:27;;;;;;;6.15;5.22;;;22.20;99.90;;;22.52;100.00;100023.69;3488463;40;101565;-83
2021/06/29 05:33:39;;;;;;;5.90;4.28;;;22.30;99.90;;;22.62;100.00;100023.09;3506533;39;102338;-84
2021/06/29 05:36:51;;;;;;;5.15;4.25;;;22.50;99.90;;;22.80;100.00;100020.19;3499835;40;100354;-83
2021/06/29 05:40:04;;;;;;;5.18;4.68;;;22.30;99.90;;;22.82;100.00;100020.78;3499293;39;100710;-84
2021/06/29 05:43:16;;;;;;;9.98;5.05;;;22.60;99.90;;;22.96;100.00;100022.13;3508530;39;103141;-86
2021/06/29 05:46:27;;;;;;;5.32;4.70;;;22.60;99.90;;;22.87;100.00;100018.16;3514959;39;99943;-83
2021/06/29 05:49:40;;;;;;;5.18;3.50;;;22.70;99.90;;;23.05;100.00;100006.16;3500797;39;100938;-83
2021/06/29 05:52:53;;;;;;;5.47;3.78;;;23.50;99.90;;;23.34;100.00;100005.03;3508820;39;101179;-82
2021/06/29 05:56:07;;;;;;;9.15;3.65;;;22.90;99.90;;;23.65;100.00;100003.63;3508576;39;101354;-84
2021/06/29 05:59:19;;;;;;;5.10;3.53;;;23.00;99.90;;;23.75;100.00;99981.91;3500091;39;102884;-82
2021/06/29 06:02:31;;;;;;;3.63;3.28;;;23.30;99.90;;;23.78;100.00;99980.59;3508812;39;100197;-82
2021/06/29 06:05:43;;;;;;;3.65;2.83;;;23.40;99.90;;;23.92;100.00;99984.63;3516367;39;103069;-84
2021/06/29 06:08:55;;;;;;;2.97;2.42;;;23.60;99.90;;;23.93;100.00;99967.97;3517899;39;103540;-84
2021/06/29 06:12:09;;;;;;;7.18;2.95;;;23.70;99.90;;;23.67;100.00;99976.91;3509817;39;100169;-83
2021/06/29 06:15:23;;;;;;;2.33;2.08;;;23.80;99.90;;;23.55;100.00;99977.00;3498078;39;100335;-84
2021/06/29 06:18:34;;;;;;;2.22;1.98;;;23.80;99.90;;;23.59;100.00;99980.91;3509148;39;100848;-85
2021/06/29 06:21:46;;;;;;;3.85;2.42;;;23.80;99.90;;;23.73;100.00;99977.81;3506966;39;101486;-84
2021/06/29 06:24:58;;;;;;;4.85;1.75;;;24.20;99.90;;;23.53;100.00;99975.59;3517082;39;102677;-83
2021/06/29 06:28:12;;;;;;;3.33;2.10;;;23.80;99.70;;;23.59;100.00;99972.69;3507714;39;100400;-83
2021/06/29 06:31:24;;;;;;;8.48;2.25;;;23.80;99.50;;;23.52;100.00;99961.09;3509388;39;101081;-85
2021/06/29 06:34:36;;;;;;;3.65;2.63;;;24.00;99.20;;;23.35;100.00;99968.47;3506653;39;101341;-83
2021/06/29 06:37:47;;;;;;;6.55;2.22;;;23.80;99.10;;;23.50;100.00;99965.13;3516615;39;102524;-84
2021/06/29 06:40:59;;;;;;;3.40;1.73;;;23.70;99.20;;;23.66;100.00;99963.47;3527828;39;100126;-84
2021/06/29 06:44:12;;;;;;;1.98;1.77;;;23.80;99.20;;;23.40;100.00;99962.25;3528365;39;99972;-82
2021/06/29 06:47:24;;;;;;;2.30;1.75;;;24.00;99.00;;;23.33;100.00;99969.81;3509769;39;102469;-84
2021/06/29 06:50:37;;;;;;;2.13;1.60;;;23.80;98.90;;;23.29;100.00;99974.91;3501235;39;102545;-85
2021/06/29 06:53:50;;;;;;;2.53;1.73;;;23.70;98.90;;;23.18;100.00;99973.94;3499392;39;100049;-84
2021/06/29 06:57:02;;;;;;;2.42;1.92;;;23.70;98.80;;;23.31;100.00;99971.94;3501910;39;103291;-83
2021/06/29 07:00:16;;;;;;;1.60;1.50;;;23.70;99.00;;;23.49;100.00;99969.75;3501376;39;101912;-84
2021/06/29 07:03:28;;;;;;;2.42;1.85;;;23.60;99.00;;;23.36;100.00;99955.66;3499769;39;101648;-84
2021/06/29 07:06:40;;;;;;;2.00;1.52;;;23.70;98.80;;;23.72;100.00;99965.22;3499563;39;100039;-84
2021/06/29 07:09:52;;;;;;;1.98;1.73;;;23.00;98.40;;;23.51;100.00;99962.19;3497060;39;102878;-84
2021/06/29 07:13:04;;;;;;;1.95;1.65;;;24.00;98.40;;;23.76;100.00;99955.44;3509177;39;101437;-83
2021/06/29 07:16:17;;;;;;;1.20;1.10;;;24.00;98.00;;;23.90;100.00;99949.34;3499848;39;102683;-83
2021/06/29 07:19:29;;;;;;;2.03;1.60;;;24.20;97.60;;;23.96;100.00;99942.88;3496672;39;100331;-83
2021/06/29 07:22:41;;;;;;;1.15;1.05;;;25.00;97.50;;;24.46;100.00;99947.31;3506495;39;101348;-84
2021/06/29 07:25:53;;;;;;;1.65;1.50;;;24.50;97.00;;;24.44;100.00;99943.19;3496655;39;101192;-82
2021/06/29 07:29:05;;;;;;;1.88;1.75;;;24.70;96.50;;;24.51;100.00;99949.25;3495959;39;102518;-82
2021/06/29 07:32:18;;;;;;;1.65;1.55;;;25.00;95.90;;;24.39;100.00;99952.16;3510479;39;100152;-82
2021/06/29 07:35:30;;;;;;;2.25;1.17;;;25.10;95.10;;;24.48;100.00;99939.66;3516833;39;99985;-83
2021/06/29 07:38:42;;;;;;;1.58;1.48;;;25.20;94.80;;;24.47;100.00;99948.16;3497261;40;101728;-82
2021/06/29 07:41:54;;;;;;;1.98;1.73;;;25.30;94.50;;;24.24;100.00;99949.22;3496824;40;100592;-83
2021/06/29 07:45:06;;;;;;;3.25;1.33;;;25.40;94.00;;;24.16;100.00;99955.97;3487030;40;100211;-82
2021/06/29 07:48:20;;;;;;;4.78;1.95;;;25.40;93.80;;;24.37;100.00;99964.41;3497311;40;100927;-83
2021/06/29 07:51:32;;;;;;;2.08;1.60;;;26.00;93.90;;;24.39;100.00;99963.09;3514399;39;103616;-84
2021/06/29 07:54:44;;;;;;;1.48;1.13;;;25.40;93.50;;;24.36;100.00;99958.13;3497380;39;102540;-82
2021/06/29 07:57:56;;;;;;;2.20;1.70;;;25.40;93.50;;;24.24;100.00;99958.25;3508671;39;100244;-83
2021/06/29 08:01:08;;;;;;;1.30;1.20;;;25.50;93.30;;;24.39;100.00;99952.16;3498443;39;103445;-83
2021/06/29 08:04:21;;;;;;;1.40;1.30;;;25.40;93.10;;;24.05;100.00;99959.66;3507945;39;101422;-83
2021/06/29 08:07:33;;;;;;;2.15;1.70;;;25.40;92.90;;;24.63;100.00;99963.63;3508832;39;100601;-83
2021/06/29 08:10:46;;;;;;;1.65;1.25;;;25.40;93.00;;;25.46;100.00;99956.72;3497785;39;101431;-83
2021/06/29 08:13:58;;;;;;;2.38;1.33;;;25.50;93.20;;;25.12;100.00;99956.16;3496765;39;102887;-82
2021/06/29 08:17:11;;;;;;;1.60;1.35;;;25.80;93.00;;;24.88;100.00;99965.78;3508015;39;101357;-84
2021/06/29 08:20:26;;;;;;;1.45;1.30;;;26.10;92.50;;;24.95;100.00;99970.00;3499093;40;100392;-83
2021/06/29 08:23:38;;;;;;;1.42;1.10;;;25.90;91.90;;;24.87;100.00;99961.38;3496555;40;100163;-86
2021/06/29 08:26:52;;;;;;;2.45;1.15;;;26.00;91.70;;;25.36;100.00;99965.66;3500082;40;103006;-84
2021/06/29 08:30:04;;;;;;;1.83;1.23;;;26.10;91.70;;;25.36;100.00;99968.41;3513662;40;100260;-84
2021/06/29 08:33:20;;;;;;;1.10;1.00;;;26.30;91.40;;;24.84;100.00;99981.91;3502245;39;100504;-81
2021/06/29 08:36:41;;;;;;;2.50;1.67;;;26.50;90.40;;;25.02;100.00;99988.94;3505452;39;99973;-81
2021/06/29 08:39:55;;;;;;;4.03;1.65;;;26.60;89.30;;;25.61;100.00;99978.75;3495177;39;103063;-82
2021/06/29 08:43:07;;;;;;;1.08;0.80;;;26.80;88.60;;;24.66;100.00;99974.88;3506654;39;100970;-83
2021/06/29 08:46:19;;;;;;;0.93;0.93;;;26.10;85.50;;;25.37;100.00;99982.91;3504841;39;102684;-82
2021/06/29 08:49:31;;;;;;;1.23;1.13;;;26.80;86.10;;;25.08;100.00;99978.88;3492543;39;100105;-83
2021/06/29 08:52:45;;;;;;;1.30;1.20;;;26.90;85.10;;;25.09;100.00;99983.25;3497787;39;103093;-82
2021/06/29 08:56:05;;;;;;;1.15;1.05;;;27.10;83.80;;;25.86;100.00;99977.25;3497356;40;100733;-82
2021/06/29 08:59:17;;;;;;;1.83;1.23;;;27.10;82.70;;;25.61;100.00;99970.50;3496821;40;100847;-83
2021/06/29 09:02:29;;;;;;;2.45;1.10;;;27.50;83.00;;;25.55;100.00;99971.56;3506306;39;100310;-83
2021/06/29 09:05:53;;;;;;;2.60;0.90;;;27.20;81.90;;;25.59;100.00;99967.19;3509064;39;103167;-83
2021/06/29 09:09:06;;;;;;;1.23;0.80;;;27.10;82.10;;;25.92;100.00;99966.06;3507372;39;100930;-82
2021/06/29 09:12:19;;;;;;;0.90;0.80;;;27.30;82.00;;;26.54;100.00;99950.66;3496593;40;100374;-82
2021/06/29 09:15:50;;;;;;;1.50;1.20;;;27.20;81.90;;;26.83;100.00;99954.53;3500566;39;100150;-83
2021/06/29 09:19:04;;;;;;;1.20;1.10;;;27.50;81.50;;;26.80;100.00;99961.41;3509071;39;101151;-83
2021/06/29 09:22:51;;;;;;;1.60;1.33;;;27.90;80.00;;;26.24;100.00;99963.16;3506330;39;103267;-83
2021/06/29 09:26:05;;;;;;;6.15;1.45;;;28.10;78.40;;;26.40;100.00;99955.84;3525362;39;99345;-81
2021/06/29 09:29:21;;;;;;;3.97;1.55;;;28.20;77.30;;;26.29;100.00;99949.50;3502228;39;100064;-83
2021/06/29 09:32:51;;;;;;;1.27;0.82;;;28.20;76.10;;;26.08;100.00;99956.00;3510413;39;100512;-82
2021/06/29 09:36:04;;;;;;;3.03;1.35;;;28.20;75.90;;;25.84;100.00;99947.34;3510771;39;101138;-82
2021/06/29 09:39:19;;;;;;;2.28;1.45;;;28.20;75.00;;;25.60;100.00;99935.97;3508799;39;100781;-84
2021/06/29 09:42:35;;;;;;;1.77;1.20;;;28.00;74.00;;;25.91;100.00;99936.97;3505832;39;100854;-84
2021/06/29 09:46:05;;;;;;;2.40;1.75;;;27.90;74.80;;;26.54;100.00;99932.28;3512823;39;100940;-83
2021/06/29 09:49:21;;;;;;;1.73;1.50;;;28.00;74.90;;;26.86;100.00;99931.22;3510938;39;101115;-82
2021/06/29 09:52:38;;;;;;;1.58;1.48;;;28.10;74.30;;;26.54;100.00;99926.81;3501885;39;100584;-83
2021/06/29 09:55:57;;;;;;;1.25;1.15;;;28.50;73.70;;;27.12;100.00;99924.66;3510974;39;100133;-83
2021/06/29 09:59:13;;;;;;;0.93;0.93;;;28.70;72.90;;;26.52;100.00;99919.94;3511299;39;100737;-82
2021/06/29 10:02:37;;;;;;;1.27;1.17;;;28.90;71.50;;;27.87;100.00;99904.47;3514559;39;103243;-83
2021/06/29 10:06:02;;;;;;;1.77;1.63;;;29.30;71.40;;;27.61;100.00;99908.41;3505102;39;101682;-84
2021/06/29 10:09:22;;;;;;;1.63;1.38;;;29.40;70.50;;;28.54;100.00;99896.72;3499643;39;100026;-83
2021/06/29 10:12:40;;;;;;;2.10;1.20;;;29.70;69.90;;;29.04;100.00;99892.75;3502384;39;101436;-83
2021/06/29 10:15:53;;;;;;;3.45;1.73;;;30.30;68.70;;;28.97;100.00;99886.75;3506964;39;101120;-85
2021/06/29 10:22:30;;;;;;;1.70;1.60;;;31.10;64.90;;;28.17;100.00;99875.19;3512299;39;100227;-83
2021/06/29 10:25:42;;;;;;;1.50;1.35;;;31.30;63.40;;;28.23;100.00;99872.13;3517231;39;100514;-82
2021/06/29 10:28:55;;;;;;;1.90;1.25;;;31.40;62.00;;;28.39;100.00;99883.03;3496140;39;103388;-85
2021/06/29 10:32:13;;;;;;;1.48;1.05;;;31.40;61.70;;;28.98;100.00;99873.78;3508915;39;100445;-83
2021/06/29 10:35:25;;;;;;;1.65;1.08;;;31.60;61.20;;;28.96;100.00;99871.31;3505603;39;100209;-83
2021/06/29 10:38:37;;;;;;;0.70;0.70;;;31.90;60.30;;;29.11;100.00;99873.13;3506040;39;101007;-83
2021/06/29 10:41:52;;;;;;;1.45;1.15;;;32.20;59.50;;;27.18;100.00;99872.22;3510066;39;101008;-84
2021/06/29 10:45:05;;;;;;;1.90;1.70;;;32.40;57.20;;;28.12;100.00;99862.25;3508399;39;100484;-84
2021/06/29 10:48:32;;;;;;;1.58;1.17;;;32.30;56.80;;;27.58;100.00;99851.22;3510953;39;100879;-84
2021/06/29 10:51:50;;;;;;;1.27;1.17;;;32.30;56.60;;;29.41;100.00;99839.78;3510173;39;102137;-83
2021/06/29 10:55:08;;;;;;;0.77;0.77;;;32.40;56.60;;;28.53;100.00;99848.28;3508365;39;101017;-84
2021/06/29 10:58:21;;;;;;;1.02;0.93;;;32.70;55.20;;;28.20;100.00;99855.34;3506681;39;100014;-82
2021/06/29 11:02:03;;;;;;;1.38;1.17;;;32.60;54.50;;;27.54;100.00;99852.88;3497414;40;99920;-85
2021/06/29 11:05:21;;;;;;;1.80;1.23;;;32.20;54.10;;;28.01;100.00;99851.59;3500703;39;103301;-84
2021/06/29 11:08:57;;;;;;;1.30;0.80;;;31.90;55.30;;;28.92;100.00;99848.25;3506644;39;103100;-84
2021/06/29 11:12:24;;;;;;;1.67;1.10;;;31.90;55.40;;;30.78;100.00;99835.13;3505887;39;100692;-83
2021/06/29 11:15:44;;;;;;;1.58;0.95;;;32.30;55.60;;;30.43;100.00;99830.13;3497736;39;100290;-84
2021/06/29 11:19:22;;;;;;;1.48;1.23;;;33.00;54.70;;;29.44;100.00;99822.63;3521747;39;99978;-83
2021/06/29 11:23:13;;;;;;;2.42;1.45;;;33.50;53.70;;;28.47;100.00;99827.38;3475402;40;101136;-84
2021/06/29 11:26:43;;;;;;;1.98;1.55;;;33.90;51.50;;;28.42;100.00;99820.00;3498608;39;101152;-83
2021/06/29 11:30:10;;;;;;;2.95;1.52;;;33.90;51.20;;;29.11;100.00;99807.84;3495851;40;100128;-83
2021/06/29 11:33:53;;;;;;;2.35;1.67;;;33.80;51.00;;;28.70;100.00;99804.63;3501731;39;101204;-84
2021/06/29 11:37:28;;;;;;;1.20;1.05;;;33.70;50.30;;;29.52;100.00;99805.47;3464619;40;101539;-82
2021/06/29 11:40:46;;;;;;;1.08;0.98;;;33.50;51.10;;;29.26;100.00;99807.66;3463088;39;102600;-81
2021/06/29 11:43:59;;;;;;;1.80;0.88;;;33.40;51.50;;;29.25;100.00;99799.69;3505339;39;100232;-83
2021/06/29 11:47:33;;;;;;;1.40;1.30;;;33.30;51.90;;;29.27;100.00;99808.50;3495009;39;103057;-83
2021/06/29 11:51:00;;;;;;;2.00;1.15;;;33.20;52.70;;;29.12;100.00;99811.41;3462361;39;102036;-83
2021/06/29 11:54:13;;;;;;;1.98;1.60;;;33.00;52.50;;;28.88;100.00;99806.69;3505739;39;100885;-84
2021/06/29 11:57:44;;;;;;;1.20;1.10;;;32.80;52.70;;;29.19;100.00;99811.88;3507161;39;100270;-84
2021/06/29 12:00:57;;;;;;;1.77;1.20;;;32.60;53.20;;;28.80;100.00;99810.09;3506342;39;101138;-82
2021/06/29 12:04:17;;;;;;;2.25;1.45;;;32.40;53.70;;;28.24;100.00;99802.25;3495716;40;101636;-82
2021/06/29 12:07:38;;;;;;;1.63;1.20;;;32.30;53.80;;;27.74;100.00;99799.78;3493917;40;102703;-81
2021/06/29 12:10:57;;;;;;;2.97;1.08;;;32.10;54.10;;;27.93;100.00;99794.47;3512114;39;100155;-84
2021/06/29 12:14:09;;;;;;;1.75;1.50;;;31.70;54.30;;;27.51;100.00;99787.50;3498402;39;101988;-81
2021/06/29 12:17:25;;;;;;;2.05;1.48;;;31.40;54.90;;;27.94;100.00;99783.19;3496522;39;103240;-82
2021/06/29 12:20:42;;;;;;;0.98;0.98;;;31.10;55.50;;;28.04;100.00;99774.88;3495888;39;102889;-83
2021/06/29 12:23:56;;;;;;;10.93;1.55;;;30.90;56.00;;;27.78;100.00;99779.69;3506452;39;100642;-81
2021/06/29 12:27:10;;;;;;;1.67;1.58;;;30.70;56.50;;;27.76;100.00;99776.41;3507190;39;101248;-81
2021/06/29 12:30:42;;;;;;;1.52;1.42;;;30.60;56.90;;;28.00;100.00;99771.03;3504631;39;103166;-83
2021/06/29 12:33:57;;;;;;;1.48;1.38;;;30.50;57.20;;;27.42;100.00;99770.78;3499523;39;100210;-82
2021/06/29 12:37:13;;;;;;;3.05;1.63;;;30.60;57.50;;;27.32;100.00;99759.84;3486235;40;100382;-83
2021/06/29 12:40:32;;;;;;;3.13;1.70;;;30.30;57.60;;;27.37;100.00;99753.47;3495378;39;102773;-82
2021/06/29 12:44:04;;;;;;;1.55;1.33;;;30.10;57.90;;;27.41;100.00;99751.81;3504751;39;101283;-81
2021/06/29 12:47:20;;;;;;;1.45;0.90;;;29.90;58.20;;;27.80;100.00;99749.19;3486499;40;101023;-83
2021/06/29 12:50:33;;;;;;;5.07;1.63;;;29.90;58.60;;;27.47;100.00;99740.50;3503043;39;100027;-82
2021/06/29 12:53:48;;;;;;;2.45;1.63;;;29.80;58.90;;;27.56;100.00;99743.53;3506872;39;101016;-82
2021/06/29 12:57:07;;;;;;;1.40;1.30;;;29.80;59.20;;;27.34;100.00;99732.88;3507209;39;100404;-83
2021/06/29 13:00:22;;;;;;;3.25;1.25;;;29.70;59.40;;;27.22;100.00;99731.56;3506320;39;100694;-82
2021/06/29 13:03:38;;;;;;;1.75;1.50;;;29.60;59.70;;;27.13;100.00;99723.09;3507175;39;100120;-83
2021/06/29 13:06:51;;;;;;;1.38;1.27;;;29.40;60.20;;;27.48;100.00;99717.44;3512808;39;101233;-83
2021/06/29 13:10:15;;;;;;;2.13;1.48;;;29.40;60.70;;;27.54;100.00;99719.06;3508542;39;102595;-84
2021/06/29 13:13:41;;;;;;;1.55;1.45;;;29.60;61.20;;;27.38;100.00;99713.91;3506637;39;100539;-81
2021/06/29 13:16:55;;;;;;;1.73;1.63;;;29.60;61.30;;;28.28;100.00;99717.22;3502972;39;99964;-82
2021/06/29 13:20:14;;;;;;;2.40;1.52;;;29.80;61.20;;;28.40;100.00;99716.84;3503964;39;103337;-81
2021/06/29 13:23:26;;;;;;;4.47;1.80;;;30.20;60.90;;;28.39;100.00;99705.00;3510220;39;103438;-80